Time;durP1;ratioP1;P1;durP2;ratioP2;P2;SDS_P1;SDS_P2;PMS_P1;PMS_P2;Temp;Humidity;BMP_temperature;BMP_pressure;BME280_temperature;BME280_humidity;BME280_pressure;Samples;Min_cycle;Max_cycle;Signal;HPM_P1;HPM_P2
2023/09/10 00:01:26;;;;;;;4.28;3.83;;;;;;;;;;5076667;28;20144;-57
2023/09/10 00:03:53;;;;;;;6.93;4.18;;;;;;;;;;5075337;28;20486;-59
2023/09/10 00:06:19;;;;;;;6.78;4.43;;;;;;;;;;5074777;28;20048;-59
2023/09/10 00:08:51;;;;;;;6.30;4.15;;;;;;;;;;5075315;28;20056;-59
2023/09/10 00:11:22;;;;;;;6.47;3.97;;;;;;;;;;5074993;28;20060;-59
2023/09/10 00:13:55;;;;;;;6.30;4.55;;;;;;;;;;5075374;28;20061;-59
2023/09/10 00:16:22;;;;;;;10.30;5.28;;;;;;;;;;5075502;28;20052;-59
2023/09/10 00:18:54;;;;;;;7.30;5.05;;;;;;;;;;5075312;28;20053;-58
2023/09/10 00:21:21;;;;;;;5.57;3.85;;;;;;;;;;5074885;28;20056;-58
2023/09/10 00:23:52;;;;;;;6.35;4.63;;;;;;;;;;5075227;28;20150;-58
2023/09/10 00:26:26;;;;;;;5.90;4.15;;;;;;;;;;5074937;28;20052;-59
2023/09/10 00:28:53;;;;;;;5.45;4.50;;;;;;;;;;5074755;28;20079;-59
2023/09/10 00:31:21;;;;;;;7.22;4.25;;;;;;;;;;5074621;28;20060;-58
2023/09/10 00:33:52;;;;;;;8.77;4.45;;;;;;;;;;5075059;28;20382;-58
2023/09/10 00:36:19;;;;;;;6.13;4.15;;;;;;;;;;5074494;28;20053;-58
2023/09/10 00:38:45;;;;;;;7.30;4.10;;;;;;;;;;5072454;28;20044;-59
2023/09/10 00:41:15;;;;;;;8.55;4.03;;;;;;;;;;5074461;28;20056;-58
2023/09/10 00:43:43;;;;;;;5.30;4.05;;;;;;;;;;5074842;28;20079;-58
2023/09/10 00:46:13;;;;;;;5.43;3.95;;;;;;;;;;5072231;28;20056;-58
2023/09/10 00:48:42;;;;;;;7.95;4.88;;;;;;;;;;5074746;28;20048;-59
2023/09/10 00:51:09;;;;;;;5.40;3.50;;;;;;;;;;5074544;28;20052;-58
2023/09/10 00:53:36;;;;;;;7.60;4.18;;;;;;;;;;5072916;28;20055;-59
2023/09/10 00:56:05;;;;;;;5.32;3.58;;;;;;;;;;5074062;28;20481;-59
2023/09/10 00:58:32;;;;;;;7.68;4.63;;;;;;;;;;5073883;28;20055;-59
2023/09/10 01:01:01;;;;;;;6.50;4.70;;;;;;;;;;5074184;28;20497;-59
2023/09/10 01:03:30;;;;;;;7.25;3.90;;;;;;;;;;5074290;28;20049;-58
2023/09/10 01:05:57;;;;;;;6.45;4.53;;;;;;;;;;5074189;28;20513;-59
2023/09/10 01:08:24;;;;;;;5.15;3.83;;;;;;;;;;5074170;28;20056;-59
2023/09/10 01:10:54;;;;;;;6.35;5.07;;;;;;;;;;5072138;28;20075;-58
2023/09/10 01:13:27;;;;;;;7.93;4.90;;;;;;;;;;5073713;28;20405;-59
2023/09/10 01:15:59;;;;;;;6.55;4.22;;;;;;;;;;5073320;28;20508;-59
2023/09/10 01:18:39;;;;;;;9.48;4.45;;;;;;;;;;5074107;28;20079;-59
2023/09/10 01:21:36;;;;;;;6.85;4.32;;;;;;;;;;5073743;28;20390;-59
2023/09/10 01:24:09;;;;;;;5.82;4.88;;;;;;;;;;5011938;28;20061;-59
2023/09/10 01:26:39;;;;;;;5.53;4.05;;;;;;;;;;5061265;28;20505;-58
2023/09/10 01:29:06;;;;;;;7.10;4.53;;;;;;;;;;5074274;28;20063;-58
2023/09/10 01:31:35;;;;;;;6.25;4.72;;;;;;;;;;5073396;28;20052;-58
2023/09/10 01:34:04;;;;;;;9.30;4.50;;;;;;;;;;5073249;28;20057;-59
2023/09/10 01:36:35;;;;;;;6.05;4.25;;;;;;;;;;5072486;28;20501;-59
2023/09/10 01:39:06;;;;;;;6.88;4.45;;;;;;;;;;5073612;28;20067;-59
2023/09/10 01:41:34;;;;;;;6.28;4.55;;;;;;;;;;5073569;28;20409;-58
2023/09/10 01:44:03;;;;;;;5.75;4.30;;;;;;;;;;5073549;28;20063;-59
2023/09/10 01:46:30;;;;;;;7.88;4.32;;;;;;;;;;5069077;28;20052;-59
2023/09/10 01:48:57;;;;;;;5.30;3.40;;;;;;;;;;5073077;28;20048;-59
2023/09/10 01:51:23;;;;;;;6.07;3.92;;;;;;;;;;5073073;28;20052;-58
2023/09/10 01:53:50;;;;;;;6.20;3.72;;;;;;;;;;5073671;28;20064;-59
2023/09/10 01:56:17;;;;;;;7.60;4.18;;;;;;;;;;5073632;28;20052;-59
2023/09/10 01:58:44;;;;;;;6.35;4.32;;;;;;;;;;5073570;28;20056;-58
2023/09/10 02:01:12;;;;;;;5.38;3.75;;;;;;;;;;5072866;28;20049;-59
2023/09/10 02:03:39;;;;;;;6.45;4.30;;;;;;;;;;5073358;28;20056;-59
2023/09/10 02:06:06;;;;;;;6.28;4.25;;;;;;;;;;5070327;28;20059;-59
2023/09/10 02:08:33;;;;;;;5.90;4.05;;;;;;;;;;5073258;28;20059;-58
2023/09/10 02:11:03;;;;;;;5.05;3.70;;;;;;;;;;5070708;28;20060;-59
2023/09/10 02:13:30;;;;;;;7.28;4.10;;;;;;;;;;5073382;28;20512;-59
2023/09/10 02:15:57;;;;;;;6.70;4.43;;;;;;;;;;5073084;28;20481;-59
2023/09/10 02:18:25;;;;;;;10.43;4.50;;;;;;;;;;5073432;28;20044;-59
2023/09/10 02:20:52;;;;;;;6.00;4.17;;;;;;;;;;5073253;28;20048;-59
2023/09/10 02:23:19;;;;;;;4.80;3.67;;;;;;;;;;5073178;28;20048;-59
2023/09/10 02:25:45;;;;;;;6.13;4.13;;;;;;;;;;5072378;28;20055;-59
2023/09/10 02:28:12;;;;;;;6.30;3.80;;;;;;;;;;5072997;28;20142;-58
2023/09/10 02:30:39;;;;;;;7.15;3.88;;;;;;;;;;5072542;28;20049;-59
2023/09/10 02:33:09;;;;;;;5.10;4.25;;;;;;;;;;5072535;28;20512;-59
2023/09/10 02:35:37;;;;;;;5.13;3.50;;;;;;;;;;5073048;28;20053;-59
2023/09/10 02:38:04;;;;;;;6.25;4.55;;;;;;;;;;5072666;28;20374;-58
2023/09/10 02:40:31;;;;;;;5.88;3.75;;;;;;;;;;5070548;28;20421;-58
2023/09/10 02:42:58;;;;;;;6.40;4.45;;;;;;;;;;5072800;28;20064;-59
2023/09/10 02:45:25;;;;;;;6.95;4.35;;;;;;;;;;5072887;28;20057;-59
2023/09/10 02:47:52;;;;;;;5.68;4.00;;;;;;;;;;5072696;28;20052;-58
2023/09/10 02:50:18;;;;;;;6.75;4.63;;;;;;;;;;5072355;28;20072;-59
2023/09/10 02:52:46;;;;;;;6.20;4.63;;;;;;;;;;5072846;28;20053;-58
2023/09/10 02:55:16;;;;;;;10.90;5.00;;;;;;;;;;5070027;28;20057;-59
2023/09/10 02:57:43;;;;;;;6.68;5.38;;;;;;;;;;5072678;28;20051;-59
2023/09/10 03:00:11;;;;;;;8.30;3.97;;;;;;;;;;5072230;28;20076;-58
2023/09/10 03:02:38;;;;;;;7.47;5.18;;;;;;;;;;5072434;28;20064;-59
2023/09/10 03:05:05;;;;;;;5.43;3.85;;;;;;;;;;5072207;28;20048;-59
2023/09/10 03:07:33;;;;;;;5.90;4.03;;;;;;;;;;5071047;28;20052;-59
2023/09/10 03:10:01;;;;;;;6.40;4.55;;;;;;;;;;5072356;28;20057;-58
2023/09/10 03:12:28;;;;;;;6.82;4.18;;;;;;;;;;5070231;28;20048;-59
2023/09/10 03:14:55;;;;;;;8.70;4.22;;;;;;;;;;5072116;28;20053;-59
2023/09/10 03:17:22;;;;;;;7.43;4.72;;;;;;;;;;5072776;28;20048;-58
2023/09/10 03:19:48;;;;;;;8.20;4.18;;;;;;;;;;5072384;28;20063;-58
2023/09/10 03:22:15;;;;;;;6.35;4.32;;;;;;;;;;5069832;28;20052;-58
2023/09/10 03:24:42;;;;;;;9.07;5.25;;;;;;;;;;5072206;28;20056;-58
2023/09/10 03:27:10;;;;;;;6.97;4.40;;;;;;;;;;5072246;28;20048;-59
2023/09/10 03:29:37;;;;;;;5.40;3.97;;;;;;;;;;5071893;28;20057;-59
2023/09/10 03:32:06;;;;;;;6.00;4.20;;;;;;;;;;5072381;28;20408;-59
2023/09/10 03:34:32;;;;;;;6.82;4.80;;;;;;;;;;5071769;28;20060;-59
2023/09/10 03:36:59;;;;;;;7.03;4.38;;;;;;;;;;5072589;28;20052;-58
2023/09/10 03:39:27;;;;;;;6.63;4.20;;;;;;;;;;5075963;28;20052;-58
2023/09/10 03:41:54;;;;;;;8.07;4.97;;;;;;;;;;5075908;28;20064;-59
2023/09/10 03:44:22;;;;;;;7.07;4.60;;;;;;;;;;5075862;28;20057;-58
2023/09/10 03:46:49;;;;;;;6.75;4.57;;;;;;;;;;5075746;28;20064;-58
2023/09/10 03:49:16;;;;;;;8.60;4.82;;;;;;;;;;5075835;28;20081;-59
2023/09/10 03:51:43;;;;;;;6.93;4.30;;;;;;;;;;5075830;28;20052;-59
2023/09/10 03:54:11;;;;;;;7.78;4.03;;;;;;;;;;5075351;28;20052;-59
2023/09/10 03:56:38;;;;;;;6.22;4.93;;;;;;;;;;5075695;28;20048;-58
2023/09/10 03:59:05;;;;;;;6.10;3.88;;;;;;;;;;5075748;28;20469;-58
2023/09/10 04:01:34;;;;;;;5.85;4.25;;;;;;;;;;5073123;28;20048;-60
2023/09/10 04:04:01;;;;;;;5.20;3.70;;;;;;;;;;5075518;28;20406;-59
2023/09/10 04:06:27;;;;;;;7.38;4.38;;;;;;;;;;5075333;28;20595;-59
2023/09/10 04:08:54;;;;;;;6.63;4.55;;;;;;;;;;5074936;28;20063;-58
2023/09/10 04:11:21;;;;;;;6.35;4.65;;;;;;;;;;5074868;28;20059;-59
2023/09/10 04:13:48;;;;;;;7.50;3.90;;;;;;;;;;5075628;28;20397;-58
2023/09/10 04:16:14;;;;;;;7.55;4.88;;;;;;;;;;5075448;28;20481;-59
2023/09/10 04:18:42;;;;;;;6.68;4.75;;;;;;;;;;5075284;28;20052;-59
2023/09/10 04:21:09;;;;;;;6.25;4.07;;;;;;;;;;5075079;28;20068;-59
2023/09/10 04:23:36;;;;;;;9.00;5.53;;;;;;;;;;5075332;28;20053;-59
2023/09/10 04:26:03;;;;;;;8.45;5.25;;;;;;;;;;5074661;28;20052;-59
2023/09/10 04:28:30;;;;;;;7.45;4.82;;;;;;;;;;5075161;28;20052;-59
2023/09/10 04:30:56;;;;;;;6.35;4.65;;;;;;;;;;5074685;28;20052;-59
2023/09/10 04:33:24;;;;;;;7.68;4.70;;;;;;;;;;5074899;28;20048;-59
2023/09/10 04:35:57;;;;;;;6.47;5.00;;;;;;;;;;5074489;28;20059;-59
2023/09/10 04:38:23;;;;;;;8.20;5.10;;;;;;;;;;5074858;28;20398;-59
2023/09/10 04:40:51;;;;;;;7.50;5.20;;;;;;;;;;5074466;28;20090;-58
2023/09/10 04:43:18;;;;;;;6.78;4.88;;;;;;;;;;5074559;28;20056;-58
2023/09/10 04:45:45;;;;;;;6.72;4.32;;;;;;;;;;5071810;28;20057;-58
2023/09/10 04:48:12;;;;;;;7.43;5.00;;;;;;;;;;5074305;28;20048;-59
2023/09/10 04:50:39;;;;;;;6.78;3.95;;;;;;;;;;5074554;28;20048;-58
2023/09/10 04:53:07;;;;;;;8.23;5.00;;;;;;;;;;5074191;28;20097;-59
2023/09/10 04:55:34;;;;;;;7.28;5.22;;;;;;;;;;5074766;28;20053;-59
2023/09/10 04:58:01;;;;;;;6.43;4.38;;;;;;;;;;5074751;28;20052;-59
2023/09/10 05:00:28;;;;;;;7.38;5.00;;;;;;;;;;5074413;28;20060;-59
2023/09/10 05:02:55;;;;;;;6.70;4.85;;;;;;;;;;5074212;28;20056;-58
2023/09/10 05:05:21;;;;;;;6.38;4.45;;;;;;;;;;5072298;28;20060;-58
2023/09/10 05:07:48;;;;;;;7.22;4.72;;;;;;;;;;5074014;28;20049;-59
2023/09/10 05:10:16;;;;;;;6.43;5.10;;;;;;;;;;5073945;28;20052;-59
2023/09/10 05:12:43;;;;;;;12.30;5.20;;;;;;;;;;5074057;28;20052;-59
2023/09/10 05:15:11;;;;;;;7.43;4.95;;;;;;;;;;5074030;28;20486;-59
2023/09/10 05:17:38;;;;;;;6.72;4.82;;;;;;;;;;5074164;28;20475;-59
2023/09/10 05:20:06;;;;;;;6.90;5.07;;;;;;;;;;5074252;28;20056;-59
2023/09/10 05:22:32;;;;;;;7.32;4.18;;;;;;;;;;5073934;28;20413;-59
2023/09/10 05:24:59;;;;;;;6.22;4.68;;;;;;;;;;5073902;28;20053;-58
2023/09/10 05:27:27;;;;;;;9.68;4.78;;;;;;;;;;5073964;28;20470;-58
2023/09/10 05:29:54;;;;;;;6.88;4.43;;;;;;;;;;5073863;28;20040;-59
2023/09/10 05:32:21;;;;;;;6.40;4.72;;;;;;;;;;5073589;28;20401;-59
2023/09/10 05:34:47;;;;;;;8.70;4.95;;;;;;;;;;5073686;28;20052;-59
2023/09/10 05:37:14;;;;;;;6.22;4.22;;;;;;;;;;5073234;28;20056;-58
2023/09/10 05:39:41;;;;;;;7.28;4.97;;;;;;;;;;5073256;28;20049;-58
2023/09/10 05:42:08;;;;;;;6.68;3.85;;;;;;;;;;5073099;28;20052;-59
2023/09/10 05:44:36;;;;;;;7.47;4.10;;;;;;;;;;5073323;28;20429;-59
2023/09/10 05:47:03;;;;;;;6.13;3.95;;;;;;;;;;5073547;28;20056;-59
2023/09/10 05:49:29;;;;;;;5.25;3.80;;;;;;;;;;5073263;28;20052;-59
2023/09/10 05:51:56;;;;;;;5.53;4.65;;;;;;;;;;5073477;28;20120;-59
2023/09/10 05:54:23;;;;;;;7.88;5.47;;;;;;;;;;5073061;28;20052;-58
2023/09/10 05:56:50;;;;;;;6.28;4.45;;;;;;;;;;5072918;28;20079;-58
2023/09/10 05:59:16;;;;;;;7.10;4.72;;;;;;;;;;5072380;28;20485;-59
2023/09/10 06:01:44;;;;;;;5.38;3.72;;;;;;;;;;5072895;28;20405;-58
2023/09/10 06:04:11;;;;;;;5.85;4.28;;;;;;;;;;5072966;28;20389;-59
2023/09/10 06:06:38;;;;;;;6.05;3.85;;;;;;;;;;5072836;28;20052;-59
2023/09/10 06:09:05;;;;;;;5.85;3.80;;;;;;;;;;5073104;28;20051;-59
2023/09/10 06:11:31;;;;;;;5.13;3.67;;;;;;;;;;5072506;28;20166;-59
2023/09/10 06:13:58;;;;;;;6.05;3.60;;;;;;;;;;5073009;28;20375;-59
2023/09/10 06:16:25;;;;;;;6.18;3.75;;;;;;;;;;5072964;28;20056;-59
2023/09/10 06:18:53;;;;;;;4.97;3.83;;;;;;;;;;5072980;28;20051;-59
2023/09/10 06:21:20;;;;;;;5.28;4.07;;;;;;;;;;5072898;28;20417;-58
2023/09/10 06:23:47;;;;;;;5.35;3.95;;;;;;;;;;5072952;28;20386;-59
2023/09/10 06:26:14;;;;;;;9.73;5.10;;;;;;;;;;5073159;28;20478;-59
2023/09/10 06:28:40;;;;;;;6.72;4.22;;;;;;;;;;5072640;28;20048;-59
2023/09/10 06:31:08;;;;;;;7.43;4.18;;;;;;;;;;5072762;28;20063;-59
2023/09/10 06:33:34;;;;;;;7.97;5.18;;;;;;;;;;5072882;28;20063;-59
2023/09/10 06:36:03;;;;;;;9.85;5.53;;;;;;;;;;5072176;28;20052;-59
2023/09/10 06:38:30;;;;;;;7.22;5.20;;;;;;;;;;5072649;28;20052;-59
2023/09/10 06:40:57;;;;;;;6.30;4.07;;;;;;;;;;5072708;28;20067;-59
2023/09/10 06:43:23;;;;;;;7.53;5.13;;;;;;;;;;5072226;28;20051;-59
2023/09/10 06:45:51;;;;;;;9.15;5.22;;;;;;;;;;5072627;28;20052;-59
2023/09/10 06:48:18;;;;;;;8.18;5.32;;;;;;;;;;5072393;28;20059;-58
2023/09/10 06:50:45;;;;;;;7.30;4.93;;;;;;;;;;5072614;28;20052;-58
2023/09/10 06:53:13;;;;;;;7.55;5.68;;;;;;;;;;5072701;28;20053;-58
2023/09/10 06:55:40;;;;;;;6.50;4.07;;;;;;;;;;5072402;28;20055;-58
2023/09/10 06:58:07;;;;;;;5.18;4.15;;;;;;;;;;5072466;28;20056;-59
2023/09/10 07:00:34;;;;;;;7.57;4.60;;;;;;;;;;5072767;28;20048;-59
2023/09/10 07:03:02;;;;;;;7.45;4.90;;;;;;;;;;5072412;28;20052;-60
2023/09/10 07:05:29;;;;;;;7.82;5.22;;;;;;;;;;5072485;28;20048;-59
2023/09/10 07:07:55;;;;;;;9.65;4.75;;;;;;;;;;5072391;28;20052;-59
2023/09/10 07:10:23;;;;;;;6.93;5.03;;;;;;;;;;5072325;28;20053;-59
2023/09/10 07:12:50;;;;;;;7.60;4.65;;;;;;;;;;5076232;28;20056;-58
2023/09/10 07:15:17;;;;;;;6.60;4.45;;;;;;;;;;5075822;28;20056;-59
2023/09/10 07:17:44;;;;;;;12.23;5.45;;;;;;;;;;5076231;28;20052;-59
2023/09/10 07:20:11;;;;;;;6.25;4.15;;;;;;;;;;5076371;28;20049;-60
2023/09/10 07:22:37;;;;;;;5.25;4.22;;;;;;;;;;5076077;28;20052;-59
2023/09/10 07:25:05;;;;;;;7.00;4.25;;;;;;;;;;5075777;28;20059;-59
2023/09/10 07:27:33;;;;;;;6.57;3.78;;;;;;;;;;5075612;28;20052;-59
2023/09/10 07:30:00;;;;;;;6.47;3.50;;;;;;;;;;5075927;28;20059;-60
2023/09/10 07:32:27;;;;;;;6.30;4.10;;;;;;;;;;5075838;28;20497;-60
2023/09/10 07:34:54;;;;;;;6.43;4.28;;;;;;;;;;5075563;28;20061;-59
2023/09/10 07:37:21;;;;;;;4.25;3.38;;;;;;;;;;5075116;28;20429;-60
2023/09/10 07:39:47;;;;;;;6.63;4.53;;;;;;;;;;5075279;28;20056;-60
2023/09/10 07:42:14;;;;;;;5.45;3.72;;;;;;;;;;5075514;28;20056;-60
2023/09/10 07:44:42;;;;;;;4.63;3.38;;;;;;;;;;5075278;28;20048;-60
2023/09/10 07:47:09;;;;;;;8.07;4.22;;;;;;;;;;5075810;28;20048;-59
2023/09/10 07:49:36;;;;;;;4.05;3.50;;;;;;;;;;5075540;28;20405;-60
2023/09/10 07:52:04;;;;;;;4.45;3.47;;;;;;;;;;5075624;28;20428;-59
2023/09/10 07:54:31;;;;;;;8.88;4.45;;;;;;;;;;5075125;28;20052;-60
2023/09/10 07:56:57;;;;;;;4.90;3.67;;;;;;;;;;5075572;28;20048;-60
2023/09/10 07:59:24;;;;;;;5.13;3.47;;;;;;;;;;5075616;28;20048;-59
2023/09/10 08:01:52;;;;;;;4.35;3.25;;;;;;;;;;5075528;28;20060;-60
2023/09/10 08:04:19;;;;;;;;;;;;;;;;;;5075684;28;20056;-59
2023/09/10 08:06:46;;;;;;;4.05;3.30;;;;;;;;;;5074959;28;19927;-59
2023/09/10 08:09:13;;;;;;;5.30;3.30;;;;;;;;;;5075181;28;20052;-60
2023/09/10 08:11:39;;;;;;;6.32;3.80;;;;;;;;;;5075282;28;20049;-60
2023/09/10 08:14:06;;;;;;;4.68;3.05;;;;;;;;;;5075110;28;20052;-59
2023/09/10 08:16:33;;;;;;;6.05;3.45;;;;;;;;;;5074866;28;20052;-60
2023/09/10 08:19:01;;;;;;;7.07;3.28;;;;;;;;;;5074841;28;20056;-60
2023/09/10 08:21:29;;;;;;;4.43;3.15;;;;;;;;;;5074793;28;20057;-59
2023/09/10 08:23:55;;;;;;;;;;;;;;;;;;5074366;28;20063;-59
2023/09/10 08:26:22;;;;;;;4.43;3.10;;;;;;;;;;5074929;28;19927;-59
2023/09/10 08:28:49;;;;;;;5.53;3.35;;;;;;;;;;5074873;28;20056;-59
2023/09/10 08:31:16;;;;;;;5.80;2.95;;;;;;;;;;5074456;28;20053;-59
2023/09/10 08:33:42;;;;;;;3.63;2.72;;;;;;;;;;5074986;28;20064;-59
2023/09/10 08:36:11;;;;;;;4.55;3.30;;;;;;;;;;5074603;28;20440;-59
2023/09/10 08:38:37;;;;;;;5.72;2.75;;;;;;;;;;5072123;28;20057;-60
2023/09/10 08:41:10;;;;;;;3.35;2.58;;;;;;;;;;5071979;28;20068;-59
2023/09/10 08:43:39;;;;;;;3.33;2.58;;;;;;;;;;5074834;28;20059;-59
2023/09/10 08:46:08;;;;;;;3.90;2.83;;;;;;;;;;5074372;28;20052;-59
2023/09/10 08:48:37;;;;;;;4.57;2.88;;;;;;;;;;5074742;28;20056;-59
2023/09/10 08:51:04;;;;;;;5.32;2.88;;;;;;;;;;5074533;28;20401;-59
2023/09/10 08:53:33;;;;;;;4.00;3.03;;;;;;;;;;5074934;28;20059;-59
2023/09/10 08:56:00;;;;;;;5.45;3.78;;;;;;;;;;5074221;28;20052;-60
2023/09/10 08:58:28;;;;;;;4.22;3.00;;;;;;;;;;5074607;28;20499;-60
2023/09/10 09:00:55;;;;;;;8.88;2.75;;;;;;;;;;5074067;28;20053;-60
2023/09/10 09:03:22;;;;;;;2.97;2.57;;;;;;;;;;5074469;28;20053;-60
2023/09/10 09:05:54;;;;;;;4.28;2.50;;;;;;;;;;5074119;28;20482;-59
2023/09/10 09:08:24;;;;;;;4.47;2.80;;;;;;;;;;5074541;28;20048;-59
2023/09/10 09:10:52;;;;;;;2.95;2.30;;;;;;;;;;5074047;28;20049;-60
2023/09/10 09:13:20;;;;;;;4.10;2.92;;;;;;;;;;5074274;28;20057;-59
2023/09/10 09:15:48;;;;;;;3.15;2.55;;;;;;;;;;5073756;28;20048;-60
2023/09/10 09:18:16;;;;;;;4.07;2.88;;;;;;;;;;5073753;28;20505;-59
2023/09/10 09:20:45;;;;;;;3.72;2.55;;;;;;;;;;5073507;28;20052;-60
2023/09/10 09:23:17;;;;;;;3.65;2.40;;;;;;;;;;5073904;28;20478;-59
2023/09/10 09:25:44;;;;;;;4.15;2.75;;;;;;;;;;5071598;28;20060;-60
2023/09/10 09:28:13;;;;;;;3.42;2.47;;;;;;;;;;5071084;28;20048;-59
2023/09/10 09:30:42;;;;;;;3.42;2.80;;;;;;;;;;5073024;28;20049;-59
2023/09/10 09:33:12;;;;;;;3.40;2.72;;;;;;;;;;5073931;28;20060;-59
2023/09/10 09:35:39;;;;;;;3.70;2.50;;;;;;;;;;5073647;28;20056;-59
2023/09/10 09:38:06;;;;;;;3.88;2.92;;;;;;;;;;5073771;28;20057;-60
2023/09/10 09:40:37;;;;;;;3.20;2.17;;;;;;;;;;5073519;28;20402;-59
2023/09/10 09:43:07;;;;;;;5.43;2.22;;;;;;;;;;5073490;28;20056;-60
2023/09/10 09:45:38;;;;;;;5.22;2.33;;;;;;;;;;5073542;28;20052;-60
2023/09/10 09:48:05;;;;;;;2.97;1.92;;;;;;;;;;5073413;28;20402;-60
2023/09/10 09:50:33;;;;;;;3.15;1.70;;;;;;;;;;5072782;28;20057;-60
2023/09/10 09:53:00;;;;;;;17.33;2.10;;;;;;;;;;5073385;28;20058;-60
2023/09/10 09:55:30;;;;;;;2.50;1.75;;;;;;;;;;5072941;28;20059;-59
2023/09/10 09:57:57;;;;;;;3.53;1.65;;;;;;;;;;5073225;28;20075;-60
2023/09/10 10:00:24;;;;;;;5.13;2.28;;;;;;;;;;5072857;28;20497;-60
2023/09/10 10:02:53;;;;;;;4.43;1.50;;;;;;;;;;5073312;28;20048;-60
2023/09/10 10:05:23;;;;;;;2.60;1.50;;;;;;;;;;5073133;28;20056;-60
2023/09/10 10:07:50;;;;;;;3.97;1.50;;;;;;;;;;5073098;28;20397;-60
2023/09/10 10:10:20;;;;;;;;;;;;;;;;;;5073395;28;20044;-60
2023/09/10 10:12:46;;;;;;;2.58;1.80;;;;;;;;;;5073121;28;19927;-60
2023/09/10 10:15:13;;;;;;;;;;;;;;;;;;5073569;28;20056;-60
2023/09/10 10:17:40;;;;;;;;;;;;;;;;;;5073450;28;19924;-60
2023/09/10 10:20:06;;;;;;;;;;;;;;;;;;5073466;28;19921;-60
2023/09/10 10:22:33;;;;;;;;;;;;;;;;;;5070998;28;19928;-60
2023/09/10 10:24:59;;;;;;;;;;;;;;;;;;5071299;28;19924;-59
2023/09/10 10:27:29;;;;;;;3.05;2.10;;;;;;;;;;5072810;28;19920;-60
2023/09/10 10:29:56;;;;;;;3.25;1.88;;;;;;;;;;5072964;28;20052;-60
2023/09/10 10:32:23;;;;;;;;;;;;;;;;;;5073298;28;20134;-60
2023/09/10 10:34:56;;;;;;;3.83;1.73;;;;;;;;;;5072738;28;19924;-59
2023/09/10 10:37:24;;;;;;;2.55;2.08;;;;;;;;;;5072495;28;20064;-60
2023/09/10 10:39:54;;;;;;;5.88;2.30;;;;;;;;;;5072386;28;20055;-60
2023/09/10 10:42:26;;;;;;;10.75;2.47;;;;;;;;;;5072891;28;20394;-60
2023/09/10 10:45:01;;;;;;;6.18;2.20;;;;;;;;;;5072516;28;20059;-60
2023/09/10 10:47:30;;;;;;;8.45;3.30;;;;;;;;;;5072028;28;20079;-59
2023/09/10 10:50:06;;;;;;;2.83;1.92;;;;;;;;;;5072622;28;20059;-60
2023/09/10 10:52:33;;;;;;;4.35;1.80;;;;;;;;;;5071327;28;20052;-60
2023/09/10 10:55:00;;;;;;;3.13;1.70;;;;;;;;;;5072238;28;20489;-60
2023/09/10 10:57:27;;;;;;;4.18;2.15;;;;;;;;;;5072290;28;20052;-60
2023/09/10 10:59:55;;;;;;;4.72;1.60;;;;;;;;;;5072558;28;20057;-60
2023/09/10 11:02:24;;;;;;;5.50;1.90;;;;;;;;;;5072346;28;20048;-60
2023/09/10 11:05:03;;;;;;;7.68;2.85;;;;;;;;;;5072498;28;20048;-60
2023/09/10 11:07:33;;;;;;;7.68;2.08;;;;;;;;;;5072350;28;20056;-60
2023/09/10 11:10:01;;;;;;;4.38;2.03;;;;;;;;;;5071906;28;20060;-60
2023/09/10 11:12:28;;;;;;;5.90;1.92;;;;;;;;;;5072541;28;20052;-60
2023/09/10 11:15:04;;;;;;;8.85;2.08;;;;;;;;;;5072435;28;20123;-60
2023/09/10 11:17:33;;;;;;;3.53;1.92;;;;;;;;;;5072452;28;20063;-60
2023/09/10 11:20:05;;;;;;;2.95;1.90;;;;;;;;;;5072787;28;20064;-60
2023/09/10 11:22:51;;;;;;;4.93;2.00;;;;;;;;;;5072450;28;20071;-60
2023/09/10 11:25:18;;;;;;;3.88;1.70;;;;;;;;;;5072011;28;20068;-58
2023/09/10 11:27:52;;;;;;;5.97;2.67;;;;;;;;;;5072393;28;20060;-58
2023/09/10 11:30:21;;;;;;;4.57;1.63;;;;;;;;;;5072031;28;20067;-60
2023/09/10 11:33:11;;;;;;;8.05;2.83;;;;;;;;;;5071748;28;20056;-59
2023/09/10 11:35:38;;;;;;;5.75;1.60;;;;;;;;;;5071921;28;20052;-59
2023/09/10 11:38:08;;;;;;;4.05;2.03;;;;;;;;;;5072088;28;20079;-60
2023/09/10 11:40:36;;;;;;;4.45;1.73;;;;;;;;;;5071738;28;20080;-60
2023/09/10 11:43:03;;;;;;;6.82;2.00;;;;;;;;;;5072005;28;20052;-60
2023/09/10 11:45:33;;;;;;;4.22;1.88;;;;;;;;;;5072151;28;20056;-61
2023/09/10 11:47:59;;;;;;;4.70;1.65;;;;;;;;;;5072379;28;20409;-61
2023/09/10 11:50:27;;;;;;;3.08;2.03;;;;;;;;;;5072303;28;20052;-61
2023/09/10 11:52:54;;;;;;;5.28;2.53;;;;;;;;;;5071630;28;20505;-61
2023/09/10 11:55:20;;;;;;;4.32;2.00;;;;;;;;;;5071866;28;20432;-61
2023/09/10 11:57:47;;;;;;;2.58;1.90;;;;;;;;;;5072475;28;20075;-60
2023/09/10 12:00:16;;;;;;;5.05;1.60;;;;;;;;;;5075282;28;20052;-61
2023/09/10 12:02:44;;;;;;;8.98;2.50;;;;;;;;;;5075997;28;20071;-60
2023/09/10 12:05:12;;;;;;;2.33;1.73;;;;;;;;;;5075584;28;20059;-60
2023/09/10 12:07:43;;;;;;;3.58;1.88;;;;;;;;;;5075327;28;20496;-61
2023/09/10 12:10:10;;;;;;;8.40;2.20;;;;;;;;;;5075119;28;20056;-61
2023/09/10 12:12:39;;;;;;;4.50;1.50;;;;;;;;;;5075258;28;20402;-61
2023/09/10 12:15:07;;;;;;;6.80;1.98;;;;;;;;;;5073509;28;20053;-59
2023/09/10 12:17:34;;;;;;;2.85;1.70;;;;;;;;;;5075052;28;20055;-59
2023/09/10 12:20:02;;;;;;;3.70;2.30;;;;;;;;;;5074877;28;20053;-59
2023/09/10 12:22:29;;;;;;;7.30;2.05;;;;;;;;;;5075239;28;20049;-60
2023/09/10 12:24:56;;;;;;;3.97;1.95;;;;;;;;;;5074870;28;20063;-59
2023/09/10 12:27:23;;;;;;;4.85;2.15;;;;;;;;;;5074965;28;20063;-60
2023/09/10 12:29:50;;;;;;;3.03;1.90;;;;;;;;;;5075208;28;20064;-60
2023/09/10 12:32:16;;;;;;;4.20;2.00;;;;;;;;;;5074800;28;20052;-60
2023/09/10 12:34:43;;;;;;;2.72;1.92;;;;;;;;;;5074676;28;20044;-60
2023/09/10 12:37:15;;;;;;;3.53;2.15;;;;;;;;;;5074549;28;20493;-60
2023/09/10 12:39:43;;;;;;;4.43;2.38;;;;;;;;;;5074784;28;20055;-60
2023/09/10 12:42:10;;;;;;;4.32;1.95;;;;;;;;;;5074752;28;20059;-60
2023/09/10 12:44:39;;;;;;;3.83;2.38;;;;;;;;;;5074837;28;20048;-61
2023/09/10 12:47:07;;;;;;;5.20;2.38;;;;;;;;;;5074596;28;20490;-61
2023/09/10 12:49:33;;;;;;;3.30;1.83;;;;;;;;;;5074686;28;20064;-61
2023/09/10 12:52:00;;;;;;;4.20;2.47;;;;;;;;;;5074599;28;20064;-60
2023/09/10 12:54:28;;;;;;;4.22;1.90;;;;;;;;;;5074565;28;20079;-60
2023/09/10 12:56:55;;;;;;;3.38;1.80;;;;;;;;;;5074650;28;20497;-60
2023/09/10 12:59:22;;;;;;;4.35;2.30;;;;;;;;;;5074583;28;20057;-60
2023/09/10 13:01:49;;;;;;;3.25;2.70;;;;;;;;;;5074372;28;20059;-60
2023/09/10 13:04:16;;;;;;;3.53;2.58;;;;;;;;;;5074424;28;20064;-61
2023/09/10 13:06:43;;;;;;;5.18;2.20;;;;;;;;;;5074252;28;20607;-61
2023/09/10 13:09:10;;;;;;;3.80;2.20;;;;;;;;;;5073955;28;20086;-61
2023/09/10 13:11:38;;;;;;;3.13;1.92;;;;;;;;;;5073862;28;20052;-60
2023/09/10 13:14:05;;;;;;;5.60;1.90;;;;;;;;;;5073936;28;20057;-60
2023/09/10 13:16:32;;;;;;;;;;;;;;;;;;5063441;28;20052;-60
2023/09/10 13:18:58;;;;;;;4.47;2.17;;;;;;;;;;5053855;28;19927;-60
2023/09/10 13:21:25;;;;;;;;;;;;;;;;;;5054111;28;20049;-61
2023/09/10 13:23:51;;;;;;;;;;;;;;;;;;5054944;28;20353;-60
2023/09/10 13:26:18;;;;;;;;;;;;;;;;;;5054543;28;19921;-60
2023/09/10 13:28:44;;;;;;;;;;;;;;;;;;5054696;28;19921;-60
2023/09/10 13:31:12;;;;;;;4.18;2.28;;;;;;;;;;5054052;28;19928;-60
2023/09/10 13:33:39;;;;;;;4.43;2.00;;;;;;;;;;5054090;28;20060;-60
2023/09/10 13:36:06;;;;;;;3.38;2.05;;;;;;;;;;5053120;28;20057;-60
2023/09/10 13:38:33;;;;;;;;;;;;;;;;;;5054576;28;20053;-60
2023/09/10 13:41:00;;;;;;;3.88;2.35;;;;;;;;;;5053750;28;19921;-60
2023/09/10 13:43:26;;;;;;;;;;;;;;;;;;5054084;28;20459;-60
2023/09/10 13:45:53;;;;;;;2.92;1.98;;;;;;;;;;5053678;28;20346;-60
2023/09/10 13:48:21;;;;;;;3.00;2.20;;;;;;;;;;5053404;28;20234;-60
2023/09/10 13:50:48;;;;;;;4.78;2.33;;;;;;;;;;5052978;28;20053;-60
2023/09/10 13:53:14;;;;;;;5.68;2.60;;;;;;;;;;5053393;28;20394;-60
2023/09/10 13:55:41;;;;;;;3.20;1.90;;;;;;;;;;5053591;28;20060;-60
2023/09/10 13:58:08;;;;;;;4.68;2.38;;;;;;;;;;5053327;28;20398;-60
2023/09/10 14:00:35;;;;;;;5.18;2.67;;;;;;;;;;5053057;28;20406;-60
2023/09/10 14:03:02;;;;;;;7.30;2.75;;;;;;;;;;5053122;28;20485;-60
2023/09/10 14:05:30;;;;;;;4.88;2.35;;;;;;;;;;5053208;28;20059;-60
2023/09/10 14:07:56;;;;;;;3.67;1.92;;;;;;;;;;5053133;28;20053;-60
2023/09/10 14:10:23;;;;;;;4.70;2.30;;;;;;;;;;5052959;28;20052;-60
2023/09/10 14:12:52;;;;;;;2.90;2.08;;;;;;;;;;5053050;28;20049;-60
2023/09/10 14:15:18;;;;;;;3.08;2.28;;;;;;;;;;5053639;28;20065;-61
2023/09/10 14:17:45;;;;;;;3.25;2.25;;;;;;;;;;5072882;28;20060;-60
2023/09/10 14:20:12;;;;;;;3.38;2.20;;;;;;;;;;5072802;28;20059;-60
2023/09/10 14:22:41;;;;;;;2.63;2.20;;;;;;;;;;5072529;28;20056;-60
2023/09/10 14:25:12;;;;;;;3.35;2.22;;;;;;;;;;5072999;28;20048;-60
2023/09/10 14:27:38;;;;;;;3.22;2.10;;;;;;;;;;5072859;28;20059;-60
2023/09/10 14:30:06;;;;;;;3.53;2.53;;;;;;;;;;5073136;28;20052;-60
2023/09/10 14:32:33;;;;;;;5.53;2.50;;;;;;;;;;5072582;28;20482;-60
2023/09/10 14:35:00;;;;;;;4.30;2.43;;;;;;;;;;5072812;28;20055;-60
2023/09/10 14:37:26;;;;;;;6.28;2.25;;;;;;;;;;5072584;28;20060;-60
2023/09/10 14:39:55;;;;;;;5.90;2.45;;;;;;;;;;5072784;28;20405;-60
2023/09/10 14:42:22;;;;;;;4.10;2.28;;;;;;;;;;5072252;28;20053;-60
2023/09/10 14:44:48;;;;;;;3.63;2.63;;;;;;;;;;5072716;28;20060;-60
2023/09/10 14:47:15;;;;;;;10.10;2.38;;;;;;;;;;5072923;28;20053;-60
2023/09/10 14:49:42;;;;;;;3.75;2.15;;;;;;;;;;5072602;28;20409;-59
2023/09/10 14:52:09;;;;;;;3.85;1.80;;;;;;;;;;5072262;28;20056;-60